sensor_id;sensor_type;location;lat;lon;timestamp;P1;durP1;ratioP1;P2;durP2;ratioP2
12127;SDS011;6127;57.702;11.904;2023-04-07T00:01:32;0.50;;;0.50;;
12127;SDS011;6127;57.702;11.904;2023-04-07T00:03:58;0.40;;;0.40;;
12127;SDS011;6127;57.702;11.904;2023-04-07T00:06:24;0.50;;;0.50;;
12127;SDS011;6127;57.702;11.904;2023-04-07T00:08:51;0.60;;;0.60;;
12127;SDS011;6127;57.702;11.904;2023-04-07T00:11:17;0.40;;;0.40;;
12127;SDS011;6127;57.702;11.904;2023-04-07T00:13:43;0.52;;;0.52;;
12127;SDS011;6127;57.702;11.904;2023-04-07T00:16:09;0.60;;;0.60;;
12127;SDS011;6127;57.702;11.904;2023-04-07T00:18:35;0.47;;;0.47;;
12127;SDS011;6127;57.702;11.904;2023-04-07T00:21:01;0.50;;;0.50;;
12127;SDS011;6127;57.702;11.904;2023-04-07T00:23:27;0.40;;;0.40;;
12127;SDS011;6127;57.702;11.904;2023-04-07T00:25:53;0.50;;;0.50;;
12127;SDS011;6127;57.702;11.904;2023-04-07T00:28:19;0.60;;;0.60;;
12127;SDS011;6127;57.702;11.904;2023-04-07T00:30:45;0.40;;;0.40;;
12127;SDS011;6127;57.702;11.904;2023-04-07T00:33:11;0.50;;;0.50;;
12127;SDS011;6127;57.702;11.904;2023-04-07T00:35:37;0.60;;;0.60;;
12127;SDS011;6127;57.702;11.904;2023-04-07T00:38:02;0.40;;;0.40;;
12127;SDS011;6127;57.702;11.904;2023-04-07T00:40:28;0.60;;;0.60;;
12127;SDS011;6127;57.702;11.904;2023-04-07T00:42:55;0.50;;;0.50;;
12127;SDS011;6127;57.702;11.904;2023-04-07T00:45:21;0.50;;;0.50;;
12127;SDS011;6127;57.702;11.904;2023-04-07T00:47:47;0.50;;;0.50;;
12127;SDS011;6127;57.702;11.904;2023-04-07T00:50:13;0.40;;;0.40;;
12127;SDS011;6127;57.702;11.904;2023-04-07T00:52:39;0.60;;;0.60;;
12127;SDS011;6127;57.702;11.904;2023-04-07T00:55:05;0.55;;;0.55;;
12127;SDS011;6127;57.702;11.904;2023-04-07T00:57:31;0.50;;;0.50;;
12127;SDS011;6127;57.702;11.904;2023-04-07T00:59:57;0.60;;;0.60;;
12127;SDS011;6127;57.702;11.904;2023-04-07T01:02:27;0.30;;;0.30;;
12127;SDS011;6127;57.702;11.904;2023-04-07T01:05:08;0.43;;;0.43;;
12127;SDS011;6127;57.702;11.904;2023-04-07T01:07:39;0.60;;;0.60;;
12127;SDS011;6127;57.702;11.904;2023-04-07T01:10:09;0.47;;;0.47;;
12127;SDS011;6127;57.702;11.904;2023-04-07T01:12:39;0.50;;;0.50;;
12127;SDS011;6127;57.702;11.904;2023-04-07T01:15:07;0.60;;;0.60;;
12127;SDS011;6127;57.702;11.904;2023-04-07T01:17:34;0.40;;;0.40;;
12127;SDS011;6127;57.702;11.904;2023-04-07T01:20:02;0.50;;;0.50;;
12127;SDS011;6127;57.702;11.904;2023-04-07T01:22:32;0.60;;;0.60;;
12127;SDS011;6127;57.702;11.904;2023-04-07T01:25:02;0.40;;;0.40;;
12127;SDS011;6127;57.702;11.904;2023-04-07T01:30:16;0.50;;;0.50;;
12127;SDS011;6127;57.702;11.904;2023-04-07T01:32:42;0.40;;;0.40;;
12127;SDS011;6127;57.702;11.904;2023-04-07T01:35:11;0.60;;;0.60;;
12127;SDS011;6127;57.702;11.904;2023-04-07T01:37:37;0.40;;;0.40;;
12127;SDS011;6127;57.702;11.904;2023-04-07T01:40:04;0.50;;;0.50;;
12127;SDS011;6127;57.702;11.904;2023-04-07T01:42:32;0.60;;;0.60;;
12127;SDS011;6127;57.702;11.904;2023-04-07T01:44:58;0.40;;;0.40;;
12127;SDS011;6127;57.702;11.904;2023-04-07T01:47:25;0.60;;;0.60;;
12127;SDS011;6127;57.702;11.904;2023-04-07T01:49:54;0.50;;;0.50;;
12127;SDS011;6127;57.702;11.904;2023-04-07T01:52:21;0.50;;;0.50;;
12127;SDS011;6127;57.702;11.904;2023-04-07T01:54:47;0.50;;;0.50;;
12127;SDS011;6127;57.702;11.904;2023-04-07T01:57:14;0.30;;;0.30;;
12127;SDS011;6127;57.702;11.904;2023-04-07T01:59:40;0.50;;;0.50;;
12127;SDS011;6127;57.702;11.904;2023-04-07T02:02:06;0.60;;;0.60;;
12127;SDS011;6127;57.702;11.904;2023-04-07T02:07:02;0.60;;;0.60;;
12127;SDS011;6127;57.702;11.904;2023-04-07T02:09:30;0.40;;;0.40;;
12127;SDS011;6127;57.702;11.904;2023-04-07T02:11:57;0.40;;;0.40;;
12127;SDS011;6127;57.702;11.904;2023-04-07T02:14:24;0.60;;;0.60;;
12127;SDS011;6127;57.702;11.904;2023-04-07T02:16:51;0.40;;;0.40;;
12127;SDS011;6127;57.702;11.904;2023-04-07T02:19:18;0.50;;;0.50;;
12127;SDS011;6127;57.702;11.904;2023-04-07T02:21:45;0.60;;;0.60;;
12127;SDS011;6127;57.702;11.904;2023-04-07T02:24:11;0.50;;;0.50;;
12127;SDS011;6127;57.702;11.904;2023-04-07T02:26:37;0.60;;;0.60;;
12127;SDS011;6127;57.702;11.904;2023-04-07T02:29:03;0.40;;;0.40;;
12127;SDS011;6127;57.702;11.904;2023-04-07T02:31:30;0.50;;;0.50;;
12127;SDS011;6127;57.702;11.904;2023-04-07T02:33:56;0.60;;;0.60;;
12127;SDS011;6127;57.702;11.904;2023-04-07T02:36:22;0.40;;;0.40;;
12127;SDS011;6127;57.702;11.904;2023-04-07T02:38:48;0.60;;;0.60;;
12127;SDS011;6127;57.702;11.904;2023-04-07T02:41:14;0.47;;;0.47;;
12127;SDS011;6127;57.702;11.904;2023-04-07T02:43:40;0.50;;;0.50;;
12127;SDS011;6127;57.702;11.904;2023-04-07T02:46:06;0.60;;;0.60;;
12127;SDS011;6127;57.702;11.904;2023-04-07T02:48:32;0.40;;;0.40;;
12127;SDS011;6127;57.702;11.904;2023-04-07T02:50:58;0.60;;;0.60;;
12127;SDS011;6127;57.702;11.904;2023-04-07T02:53:24;0.40;;;0.40;;
12127;SDS011;6127;57.702;11.904;2023-04-07T02:55:50;0.50;;;0.50;;
12127;SDS011;6127;57.702;11.904;2023-04-07T02:58:16;0.60;;;0.60;;
12127;SDS011;6127;57.702;11.904;2023-04-07T03:00:42;0.40;;;0.40;;
12127;SDS011;6127;57.702;11.904;2023-04-07T03:03:07;0.50;;;0.50;;
12127;SDS011;6127;57.702;11.904;2023-04-07T03:05:33;0.60;;;0.60;;
12127;SDS011;6127;57.702;11.904;2023-04-07T03:07:59;0.50;;;0.50;;
12127;SDS011;6127;57.702;11.904;2023-04-07T03:10:25;0.50;;;0.50;;
12127;SDS011;6127;57.702;11.904;2023-04-07T03:12:51;0.40;;;0.40;;
12127;SDS011;6127;57.702;11.904;2023-04-07T03:15:17;0.50;;;0.50;;
12127;SDS011;6127;57.702;11.904;2023-04-07T03:17:43;0.60;;;0.60;;
12127;SDS011;6127;57.702;11.904;2023-04-07T03:20:09;0.40;;;0.40;;
12127;SDS011;6127;57.702;11.904;2023-04-07T03:22:36;0.50;;;0.50;;
12127;SDS011;6127;57.702;11.904;2023-04-07T03:25:02;0.47;;;0.47;;
12127;SDS011;6127;57.702;11.904;2023-04-07T03:27:27;0.50;;;0.50;;
12127;SDS011;6127;57.702;11.904;2023-04-07T03:29:53;0.60;;;0.60;;
12127;SDS011;6127;57.702;11.904;2023-04-07T03:32:20;0.40;;;0.40;;
12127;SDS011;6127;57.702;11.904;2023-04-07T03:34:46;0.50;;;0.50;;
12127;SDS011;6127;57.702;11.904;2023-04-07T03:37:12;0.50;;;0.50;;
12127;SDS011;6127;57.702;11.904;2023-04-07T03:39:38;0.50;;;0.50;;
12127;SDS011;6127;57.702;11.904;2023-04-07T03:42:05;0.53;;;0.53;;
12127;SDS011;6127;57.702;11.904;2023-04-07T03:44:31;0.40;;;0.40;;
12127;SDS011;6127;57.702;11.904;2023-04-07T03:46:57;0.60;;;0.60;;
12127;SDS011;6127;57.702;11.904;2023-04-07T03:49:23;0.40;;;0.40;;
12127;SDS011;6127;57.702;11.904;2023-04-07T03:51:49;0.50;;;0.50;;
12127;SDS011;6127;57.702;11.904;2023-04-07T03:54:15;0.60;;;0.60;;
12127;SDS011;6127;57.702;11.904;2023-04-07T03:56:41;0.30;;;0.30;;
12127;SDS011;6127;57.702;11.904;2023-04-07T03:59:07;0.50;;;0.50;;
12127;SDS011;6127;57.702;11.904;2023-04-07T04:01:33;0.60;;;0.60;;
12127;SDS011;6127;57.702;11.904;2023-04-07T04:04:00;0.50;;;0.50;;
12127;SDS011;6127;57.702;11.904;2023-04-07T04:06:26;0.60;;;0.60;;
12127;SDS011;6127;57.702;11.904;2023-04-07T04:08:52;0.40;;;0.40;;
12127;SDS011;6127;57.702;11.904;2023-04-07T04:11:18;0.60;;;0.60;;
12127;SDS011;6127;57.702;11.904;2023-04-07T04:13:44;0.40;;;0.40;;
12127;SDS011;6127;57.702;11.904;2023-04-07T04:16:10;0.40;;;0.40;;
12127;SDS011;6127;57.702;11.904;2023-04-07T04:18:36;0.60;;;0.60;;
12127;SDS011;6127;57.702;11.904;2023-04-07T04:21:02;0.40;;;0.40;;
12127;SDS011;6127;57.702;11.904;2023-04-07T04:23:28;0.50;;;0.50;;
12127;SDS011;6127;57.702;11.904;2023-04-07T04:25:54;0.40;;;0.40;;
12127;SDS011;6127;57.702;11.904;2023-04-07T04:28:20;0.50;;;0.50;;
12127;SDS011;6127;57.702;11.904;2023-04-07T04:30:46;0.60;;;0.60;;
12127;SDS011;6127;57.702;11.904;2023-04-07T04:33:13;0.40;;;0.40;;
12127;SDS011;6127;57.702;11.904;2023-04-07T04:35:38;0.60;;;0.60;;
12127;SDS011;6127;57.702;11.904;2023-04-07T04:38:05;0.40;;;0.40;;
12127;SDS011;6127;57.702;11.904;2023-04-07T04:40:31;0.50;;;0.50;;
12127;SDS011;6127;57.702;11.904;2023-04-07T04:42:57;0.60;;;0.60;;
12127;SDS011;6127;57.702;11.904;2023-04-07T04:45:23;0.50;;;0.50;;
12127;SDS011;6127;57.702;11.904;2023-04-07T04:47:49;0.60;;;0.60;;
12127;SDS011;6127;57.702;11.904;2023-04-07T04:50:15;0.40;;;0.40;;
12127;SDS011;6127;57.702;11.904;2023-04-07T04:52:41;0.50;;;0.50;;
12127;SDS011;6127;57.702;11.904;2023-04-07T04:55:07;0.40;;;0.40;;
12127;SDS011;6127;57.702;11.904;2023-04-07T04:57:33;0.50;;;0.50;;
12127;SDS011;6127;57.702;11.904;2023-04-07T05:00:00;0.60;;;0.60;;
12127;SDS011;6127;57.702;11.904;2023-04-07T05:02:26;0.43;;;0.43;;
12127;SDS011;6127;57.702;11.904;2023-04-07T05:04:52;0.50;;;0.50;;
12127;SDS011;6127;57.702;11.904;2023-04-07T05:07:18;0.57;;;0.57;;
12127;SDS011;6127;57.702;11.904;2023-04-07T05:09:44;0.50;;;0.50;;
12127;SDS011;6127;57.702;11.904;2023-04-07T05:12:10;0.60;;;0.60;;
12127;SDS011;6127;57.702;11.904;2023-04-07T05:14:36;0.40;;;0.40;;
12127;SDS011;6127;57.702;11.904;2023-04-07T05:17:02;0.50;;;0.50;;
12127;SDS011;6127;57.702;11.904;2023-04-07T05:19:28;0.40;;;0.40;;
12127;SDS011;6127;57.702;11.904;2023-04-07T05:21:53;0.50;;;0.50;;
12127;SDS011;6127;57.702;11.904;2023-04-07T05:24:20;0.60;;;0.60;;
12127;SDS011;6127;57.702;11.904;2023-04-07T05:26:46;0.45;;;0.45;;
12127;SDS011;6127;57.702;11.904;2023-04-07T05:29:12;0.50;;;0.50;;
12127;SDS011;6127;57.702;11.904;2023-04-07T05:31:38;0.40;;;0.40;;
12127;SDS011;6127;57.702;11.904;2023-04-07T05:34:05;0.50;;;0.50;;
12127;SDS011;6127;57.702;11.904;2023-04-07T05:36:31;0.60;;;0.60;;
12127;SDS011;6127;57.702;11.904;2023-04-07T05:38:57;0.40;;;0.40;;
12127;SDS011;6127;57.702;11.904;2023-04-07T05:41:23;0.60;;;0.60;;
12127;SDS011;6127;57.702;11.904;2023-04-07T05:43:48;0.40;;;0.40;;
12127;SDS011;6127;57.702;11.904;2023-04-07T05:46:14;0.50;;;0.50;;
12127;SDS011;6127;57.702;11.904;2023-04-07T05:48:40;0.60;;;0.60;;
12127;SDS011;6127;57.702;11.904;2023-04-07T05:51:06;0.40;;;0.40;;
12127;SDS011;6127;57.702;11.904;2023-04-07T05:53:32;0.50;;;0.50;;
12127;SDS011;6127;57.702;11.904;2023-04-07T05:55:58;0.53;;;0.53;;
12127;SDS011;6127;57.702;11.904;2023-04-07T05:58:24;0.50;;;0.50;;
12127;SDS011;6127;57.702;11.904;2023-04-07T06:00:51;0.50;;;0.50;;
12127;SDS011;6127;57.702;11.904;2023-04-07T06:03:17;0.33;;;0.33;;
12127;SDS011;6127;57.702;11.904;2023-04-07T06:05:46;0.50;;;0.50;;
12127;SDS011;6127;57.702;11.904;2023-04-07T06:08:12;0.50;;;0.50;;
12127;SDS011;6127;57.702;11.904;2023-04-07T06:10:38;0.40;;;0.40;;
12127;SDS011;6127;57.702;11.904;2023-04-07T06:13:05;0.60;;;0.60;;
12127;SDS011;6127;57.702;11.904;2023-04-07T06:15:31;0.30;;;0.30;;
12127;SDS011;6127;57.702;11.904;2023-04-07T06:17:57;0.50;;;0.50;;
12127;SDS011;6127;57.702;11.904;2023-04-07T06:20:23;0.60;;;0.60;;
12127;SDS011;6127;57.702;11.904;2023-04-07T06:22:51;0.40;;;0.40;;
12127;SDS011;6127;57.702;11.904;2023-04-07T06:25:17;0.50;;;0.50;;
12127;SDS011;6127;57.702;11.904;2023-04-07T06:27:43;0.60;;;0.60;;
12127;SDS011;6127;57.702;11.904;2023-04-07T06:30:09;0.40;;;0.40;;
12127;SDS011;6127;57.702;11.904;2023-04-07T06:32:35;0.57;;;0.57;;
12127;SDS011;6127;57.702;11.904;2023-04-07T06:35:01;0.40;;;0.40;;
12127;SDS011;6127;57.702;11.904;2023-04-07T06:37:27;0.50;;;0.50;;
12127;SDS011;6127;57.702;11.904;2023-04-07T06:39:53;0.60;;;0.60;;
12127;SDS011;6127;57.702;11.904;2023-04-07T06:42:19;0.30;;;0.30;;
12127;SDS011;6127;57.702;11.904;2023-04-07T06:44:45;0.50;;;0.50;;
12127;SDS011;6127;57.702;11.904;2023-04-07T06:47:11;0.50;;;0.50;;
12127;SDS011;6127;57.702;11.904;2023-04-07T06:49:37;0.50;;;0.50;;
12127;SDS011;6127;57.702;11.904;2023-04-07T06:52:03;0.60;;;0.60;;
12127;SDS011;6127;57.702;11.904;2023-04-07T06:54:29;0.47;;;0.47;;
12127;SDS011;6127;57.702;11.904;2023-04-07T06:56:55;0.60;;;0.60;;
12127;SDS011;6127;57.702;11.904;2023-04-07T06:59:21;0.60;;;0.60;;
12127;SDS011;6127;57.702;11.904;2023-04-07T07:01:47;0.40;;;0.40;;
12127;SDS011;6127;57.702;11.904;2023-04-07T07:04:13;0.50;;;0.50;;
12127;SDS011;6127;57.702;11.904;2023-04-07T07:06:39;0.60;;;0.60;;
12127;SDS011;6127;57.702;11.904;2023-04-07T07:09:05;0.40;;;0.40;;
12127;SDS011;6127;57.702;11.904;2023-04-07T07:11:31;0.50;;;0.50;;
12127;SDS011;6127;57.702;11.904;2023-04-07T07:13:57;0.50;;;0.50;;
12127;SDS011;6127;57.702;11.904;2023-04-07T07:16:23;0.40;;;0.40;;
12127;SDS011;6127;57.702;11.904;2023-04-07T07:18:50;0.50;;;0.50;;
12127;SDS011;6127;57.702;11.904;2023-04-07T07:21:16;0.60;;;0.60;;
12127;SDS011;6127;57.702;11.904;2023-04-07T07:23:42;0.40;;;0.40;;
12127;SDS011;6127;57.702;11.904;2023-04-07T07:26:08;0.50;;;0.50;;
12127;SDS011;6127;57.702;11.904;2023-04-07T07:28:34;0.50;;;0.50;;
12127;SDS011;6127;57.702;11.904;2023-04-07T07:31:07;0.30;;;0.30;;
12127;SDS011;6127;57.702;11.904;2023-04-07T07:33:34;0.40;;;0.40;;
12127;SDS011;6127;57.702;11.904;2023-04-07T07:36:00;0.50;;;0.50;;
12127;SDS011;6127;57.702;11.904;2023-04-07T07:38:26;0.50;;;0.50;;
12127;SDS011;6127;57.702;11.904;2023-04-07T07:40:52;0.30;;;0.30;;
12127;SDS011;6127;57.702;11.904;2023-04-07T07:43:18;0.40;;;0.40;;
12127;SDS011;6127;57.702;11.904;2023-04-07T07:45:44;0.40;;;0.40;;
12127;SDS011;6127;57.702;11.904;2023-04-07T07:48:10;0.50;;;0.50;;
12127;SDS011;6127;57.702;11.904;2023-04-07T07:50:36;0.50;;;0.50;;
12127;SDS011;6127;57.702;11.904;2023-04-07T07:53:02;0.50;;;0.50;;
12127;SDS011;6127;57.702;11.904;2023-04-07T07:55:28;0.40;;;0.40;;
12127;SDS011;6127;57.702;11.904;2023-04-07T07:57:54;0.30;;;0.30;;
12127;SDS011;6127;57.702;11.904;2023-04-07T08:00:20;0.30;;;0.30;;
12127;SDS011;6127;57.702;11.904;2023-04-07T08:02:47;0.40;;;0.40;;
12127;SDS011;6127;57.702;11.904;2023-04-07T08:05:13;0.40;;;0.40;;
12127;SDS011;6127;57.702;11.904;2023-04-07T08:07:39;0.50;;;0.50;;
12127;SDS011;6127;57.702;11.904;2023-04-07T08:10:07;0.52;;;0.52;;
12127;SDS011;6127;57.702;11.904;2023-04-07T08:12:33;0.30;;;0.30;;
12127;SDS011;6127;57.702;11.904;2023-04-07T08:14:59;0.30;;;0.30;;
12127;SDS011;6127;57.702;11.904;2023-04-07T08:17:26;0.30;;;0.30;;
12127;SDS011;6127;57.702;11.904;2023-04-07T08:19:52;0.30;;;0.30;;
12127;SDS011;6127;57.702;11.904;2023-04-07T08:22:18;0.40;;;0.40;;
12127;SDS011;6127;57.702;11.904;2023-04-07T08:24:45;0.40;;;0.40;;
12127;SDS011;6127;57.702;11.904;2023-04-07T08:27:11;0.40;;;0.40;;
12127;SDS011;6127;57.702;11.904;2023-04-07T08:29:37;0.30;;;0.30;;
12127;SDS011;6127;57.702;11.904;2023-04-07T08:32:03;0.30;;;0.30;;
12127;SDS011;6127;57.702;11.904;2023-04-07T08:34:29;0.30;;;0.30;;
12127;SDS011;6127;57.702;11.904;2023-04-07T08:36:55;0.30;;;0.30;;
12127;SDS011;6127;57.702;11.904;2023-04-07T08:39:21;0.20;;;0.20;;
12127;SDS011;6127;57.702;11.904;2023-04-07T08:41:49;0.20;;;0.20;;
12127;SDS011;6127;57.702;11.904;2023-04-07T08:44:15;0.30;;;0.30;;
12127;SDS011;6127;57.702;11.904;2023-04-07T08:46:41;0.40;;;0.40;;
12127;SDS011;6127;57.702;11.904;2023-04-07T08:49:08;0.30;;;0.30;;
12127;SDS011;6127;57.702;11.904;2023-04-07T08:51:36;0.30;;;0.30;;
12127;SDS011;6127;57.702;11.904;2023-04-07T08:54:09;0.30;;;0.30;;
12127;SDS011;6127;57.702;11.904;2023-04-07T08:56:39;0.20;;;0.20;;
12127;SDS011;6127;57.702;11.904;2023-04-07T08:59:05;0.40;;;0.40;;
12127;SDS011;6127;57.702;11.904;2023-04-07T09:01:31;0.30;;;0.30;;
12127;SDS011;6127;57.702;11.904;2023-04-07T09:03:59;0.20;;;0.20;;
12127;SDS011;6127;57.702;11.904;2023-04-07T09:06:26;0.25;;;0.25;;
12127;SDS011;6127;57.702;11.904;2023-04-07T09:08:52;0.30;;;0.30;;
12127;SDS011;6127;57.702;11.904;2023-04-07T09:11:18;0.10;;;0.10;;
12127;SDS011;6127;57.702;11.904;2023-04-07T09:13:44;0.30;;;0.30;;
12127;SDS011;6127;57.702;11.904;2023-04-07T09:16:10;0.20;;;0.20;;
12127;SDS011;6127;57.702;11.904;2023-04-07T09:18:38;0.20;;;0.20;;
12127;SDS011;6127;57.702;11.904;2023-04-07T09:21:04;0.30;;;0.30;;
12127;SDS011;6127;57.702;11.904;2023-04-07T09:23:35;0.20;;;0.20;;
12127;SDS011;6127;57.702;11.904;2023-04-07T09:26:23;0.40;;;0.40;;
12127;SDS011;6127;57.702;11.904;2023-04-07T09:28:52;0.30;;;0.30;;
12127;SDS011;6127;57.702;11.904;2023-04-07T09:31:19;0.30;;;0.30;;
12127;SDS011;6127;57.702;11.904;2023-04-07T09:33:46;0.40;;;0.40;;
12127;SDS011;6127;57.702;11.904;2023-04-07T09:36:12;0.40;;;0.40;;
12127;SDS011;6127;57.702;11.904;2023-04-07T09:38:39;0.30;;;0.30;;
12127;SDS011;6127;57.702;11.904;2023-04-07T09:41:08;0.20;;;0.20;;
12127;SDS011;6127;57.702;11.904;2023-04-07T09:43:35;0.30;;;0.30;;
12127;SDS011;6127;57.702;11.904;2023-04-07T09:46:08;0.40;;;0.40;;
12127;SDS011;6127;57.702;11.904;2023-04-07T09:48:35;0.30;;;0.30;;
12127;SDS011;6127;57.702;11.904;2023-04-07T09:51:08;0.20;;;0.20;;
12127;SDS011;6127;57.702;11.904;2023-04-07T09:53:47;0.40;;;0.40;;
12127;SDS011;6127;57.702;11.904;2023-04-07T09:56:14;0.20;;;0.20;;
12127;SDS011;6127;57.702;11.904;2023-04-07T09:58:41;0.30;;;0.30;;
12127;SDS011;6127;57.702;11.904;2023-04-07T10:01:08;0.20;;;0.20;;
12127;SDS011;6127;57.702;11.904;2023-04-07T10:03:35;0.28;;;0.28;;
12127;SDS011;6127;57.702;11.904;2023-04-07T10:06:01;0.10;;;0.10;;
12127;SDS011;6127;57.702;11.904;2023-04-07T10:08:27;0.20;;;0.20;;
12127;SDS011;6127;57.702;11.904;2023-04-07T10:10:54;0.20;;;0.20;;
12127;SDS011;6127;57.702;11.904;2023-04-07T10:13:21;0.30;;;0.30;;
12127;SDS011;6127;57.702;11.904;2023-04-07T10:15:48;0.20;;;0.20;;
12127;SDS011;6127;57.702;11.904;2023-04-07T10:18:14;0.20;;;0.20;;
12127;SDS011;6127;57.702;11.904;2023-04-07T10:20:42;0.10;;;0.10;;
12127;SDS011;6127;57.702;11.904;2023-04-07T10:23:12;0.10;;;0.10;;
12127;SDS011;6127;57.702;11.904;2023-04-07T10:25:41;0.10;;;0.10;;
12127;SDS011;6127;57.702;11.904;2023-04-07T10:28:09;0.13;;;0.13;;
12127;SDS011;6127;57.702;11.904;2023-04-07T10:30:36;0.20;;;0.20;;
12127;SDS011;6127;57.702;11.904;2023-04-07T10:33:03;0.15;;;0.15;;
12127;SDS011;6127;57.702;11.904;2023-04-07T10:36:01;0.10;;;0.10;;
12127;SDS011;6127;57.702;11.904;2023-04-07T10:38:16;0.20;;;0.20;;
12127;SDS011;6127;57.702;11.904;2023-04-07T10:40:42;0.10;;;0.10;;
12127;SDS011;6127;57.702;11.904;2023-04-07T10:43:08;0.10;;;0.10;;
12127;SDS011;6127;57.702;11.904;2023-04-07T10:48:11;0.10;;;0.10;;
12127;SDS011;6127;57.702;11.904;2023-04-07T10:50:37;0.10;;;0.10;;
12127;SDS011;6127;57.702;11.904;2023-04-07T10:53:04;0.20;;;0.20;;
12127;SDS011;6127;57.702;11.904;2023-04-07T10:55:41;0.10;;;0.10;;
12127;SDS011;6127;57.702;11.904;2023-04-07T11:03:22;0.10;;;0.10;;
12127;SDS011;6127;57.702;11.904;2023-04-07T11:05:48;0.20;;;0.20;;
12127;SDS011;6127;57.702;11.904;2023-04-07T11:08:14;0.10;;;0.10;;
12127;SDS011;6127;57.702;11.904;2023-04-07T11:10:46;0.10;;;0.10;;
12127;SDS011;6127;57.702;11.904;2023-04-07T11:13:12;0.10;;;0.10;;
12127;SDS011;6127;57.702;11.904;2023-04-07T11:15:38;0.10;;;0.10;;
12127;SDS011;6127;57.702;11.904;2023-04-07T11:18:12;0.10;;;0.10;;
12127;SDS011;6127;57.702;11.904;2023-04-07T11:20:40;0.20;;;0.20;;
12127;SDS011;6127;57.702;11.904;2023-04-07T11:23:06;0.10;;;0.10;;
12127;SDS011;6127;57.702;11.904;2023-04-07T11:25:32;0.10;;;0.10;;
12127;SDS011;6127;57.702;11.904;2023-04-07T11:27:59;0.10;;;0.10;;
12127;SDS011;6127;57.702;11.904;2023-04-07T11:30:25;0.17;;;0.17;;
12127;SDS011;6127;57.702;11.904;2023-04-07T11:32:51;0.10;;;0.10;;
12127;SDS011;6127;57.702;11.904;2023-04-07T11:35:17;0.10;;;0.10;;
12127;SDS011;6127;57.702;11.904;2023-04-07T11:37:44;0.17;;;0.17;;
12127;SDS011;6127;57.702;11.904;2023-04-07T11:40:10;0.10;;;0.10;;
12127;SDS011;6127;57.702;11.904;2023-04-07T11:42:38;0.20;;;0.20;;
12127;SDS011;6127;57.702;11.904;2023-04-07T11:45:05;0.10;;;0.10;;
12127;SDS011;6127;57.702;11.904;2023-04-07T11:47:40;0.20;;;0.20;;
12127;SDS011;6127;57.702;11.904;2023-04-07T11:50:06;0.10;;;0.10;;
12127;SDS011;6127;57.702;11.904;2023-04-07T11:52:42;0.20;;;0.20;;
12127;SDS011;6127;57.702;11.904;2023-04-07T11:55:18;0.10;;;0.10;;
12127;SDS011;6127;57.702;11.904;2023-04-07T11:57:45;0.10;;;0.10;;
12127;SDS011;6127;57.702;11.904;2023-04-07T12:00:11;0.20;;;0.20;;
12127;SDS011;6127;57.702;11.904;2023-04-07T12:02:38;0.10;;;0.10;;
12127;SDS011;6127;57.702;11.904;2023-04-07T12:05:04;0.20;;;0.20;;
12127;SDS011;6127;57.702;11.904;2023-04-07T12:07:30;0.10;;;0.10;;
12127;SDS011;6127;57.702;11.904;2023-04-07T12:09:57;0.20;;;0.20;;
12127;SDS011;6127;57.702;11.904;2023-04-07T12:12:27;0.15;;;0.15;;
12127;SDS011;6127;57.702;11.904;2023-04-07T12:14:53;0.10;;;0.10;;
12127;SDS011;6127;57.702;11.904;2023-04-07T12:17:22;0.10;;;0.10;;
12127;SDS011;6127;57.702;11.904;2023-04-07T12:19:48;0.20;;;0.20;;
12127;SDS011;6127;57.702;11.904;2023-04-07T12:22:14;0.10;;;0.10;;
12127;SDS011;6127;57.702;11.904;2023-04-07T12:24:40;0.20;;;0.20;;
12127;SDS011;6127;57.702;11.904;2023-04-07T12:27:06;0.10;;;0.10;;
12127;SDS011;6127;57.702;11.904;2023-04-07T12:29:33;0.20;;;0.20;;
12127;SDS011;6127;57.702;11.904;2023-04-07T12:31:59;0.10;;;0.10;;
12127;SDS011;6127;57.702;11.904;2023-04-07T12:34:25;0.20;;;0.20;;
12127;SDS011;6127;57.702;11.904;2023-04-07T12:36:51;0.10;;;0.10;;
12127;SDS011;6127;57.702;11.904;2023-04-07T12:39:18;0.20;;;0.20;;
12127;SDS011;6127;57.702;11.904;2023-04-07T12:41:44;0.10;;;0.10;;
12127;SDS011;6127;57.702;11.904;2023-04-07T12:44:11;0.20;;;0.20;;
12127;SDS011;6127;57.702;11.904;2023-04-07T12:46:37;0.15;;;0.15;;
12127;SDS011;6127;57.702;11.904;2023-04-07T12:49:03;0.10;;;0.10;;
12127;SDS011;6127;57.702;11.904;2023-04-07T12:51:29;0.20;;;0.20;;
12127;SDS011;6127;57.702;11.904;2023-04-07T12:53:57;0.10;;;0.10;;
12127;SDS011;6127;57.702;11.904;2023-04-07T12:56:24;0.20;;;0.20;;
12127;SDS011;6127;57.702;11.904;2023-04-07T12:58:51;0.10;;;0.10;;
12127;SDS011;6127;57.702;11.904;2023-04-07T13:01:18;0.10;;;0.10;;
12127;SDS011;6127;57.702;11.904;2023-04-07T13:03:44;0.10;;;0.10;;
12127;SDS011;6127;57.702;11.904;2023-04-07T13:06:10;0.10;;;0.10;;
12127;SDS011;6127;57.702;11.904;2023-04-07T13:08:36;0.10;;;0.10;;
12127;SDS011;6127;57.702;11.904;2023-04-07T13:11:02;0.20;;;0.20;;
12127;SDS011;6127;57.702;11.904;2023-04-07T13:13:29;0.13;;;0.13;;
12127;SDS011;6127;57.702;11.904;2023-04-07T13:15:55;0.15;;;0.15;;
12127;SDS011;6127;57.702;11.904;2023-04-07T13:18:21;0.20;;;0.20;;
12127;SDS011;6127;57.702;11.904;2023-04-07T13:20:47;0.17;;;0.17;;
12127;SDS011;6127;57.702;11.904;2023-04-07T13:23:13;0.10;;;0.10;;
12127;SDS011;6127;57.702;11.904;2023-04-07T13:25:39;0.10;;;0.10;;
12127;SDS011;6127;57.702;11.904;2023-04-07T13:28:05;0.20;;;0.20;;
12127;SDS011;6127;57.702;11.904;2023-04-07T13:30:31;0.30;;;0.30;;
12127;SDS011;6127;57.702;11.904;2023-04-07T13:32:57;0.20;;;0.20;;
12127;SDS011;6127;57.702;11.904;2023-04-07T13:35:23;0.20;;;0.20;;
12127;SDS011;6127;57.702;11.904;2023-04-07T13:37:49;0.35;;;0.35;;
12127;SDS011;6127;57.702;11.904;2023-04-07T13:40:15;0.20;;;0.20;;
12127;SDS011;6127;57.702;11.904;2023-04-07T13:42:41;0.30;;;0.30;;
12127;SDS011;6127;57.702;11.904;2023-04-07T13:45:07;0.30;;;0.30;;
12127;SDS011;6127;57.702;11.904;2023-04-07T13:47:33;0.20;;;0.20;;
12127;SDS011;6127;57.702;11.904;2023-04-07T13:50:00;0.40;;;0.40;;
12127;SDS011;6127;57.702;11.904;2023-04-07T13:52:26;0.10;;;0.10;;
12127;SDS011;6127;57.702;11.904;2023-04-07T13:54:52;0.30;;;0.30;;
12127;SDS011;6127;57.702;11.904;2023-04-07T13:57:18;0.17;;;0.17;;
12127;SDS011;6127;57.702;11.904;2023-04-07T13:59:48;0.30;;;0.30;;
12127;SDS011;6127;57.702;11.904;2023-04-07T14:02:16;0.30;;;0.30;;
12127;SDS011;6127;57.702;11.904;2023-04-07T14:04:43;0.30;;;0.30;;
12127;SDS011;6127;57.702;11.904;2023-04-07T14:07:09;0.20;;;0.20;;
12127;SDS011;6127;57.702;11.904;2023-04-07T14:09:35;0.30;;;0.30;;
12127;SDS011;6127;57.702;11.904;2023-04-07T14:12:01;0.15;;;0.15;;
12127;SDS011;6127;57.702;11.904;2023-04-07T14:14:27;0.30;;;0.30;;
12127;SDS011;6127;57.702;11.904;2023-04-07T14:16:53;0.20;;;0.20;;
12127;SDS011;6127;57.702;11.904;2023-04-07T14:19:20;0.40;;;0.40;;
12127;SDS011;6127;57.702;11.904;2023-04-07T14:21:49;0.20;;;0.20;;
12127;SDS011;6127;57.702;11.904;2023-04-07T14:24:15;0.32;;;0.32;;
12127;SDS011;6127;57.702;11.904;2023-04-07T14:26:44;0.30;;;0.30;;
12127;SDS011;6127;57.702;11.904;2023-04-07T14:29:11;0.28;;;0.28;;
12127;SDS011;6127;57.702;11.904;2023-04-07T14:31:37;0.30;;;0.30;;
12127;SDS011;6127;57.702;11.904;2023-04-07T14:34:03;0.27;;;0.27;;
12127;SDS011;6127;57.702;11.904;2023-04-07T14:36:30;0.40;;;0.40;;
12127;SDS011;6127;57.702;11.904;2023-04-07T14:38:56;0.40;;;0.40;;
12127;SDS011;6127;57.702;11.904;2023-04-07T14:41:23;0.20;;;0.20;;
12127;SDS011;6127;57.702;11.904;2023-04-07T14:43:49;0.40;;;0.40;;
12127;SDS011;6127;57.702;11.904;2023-04-07T14:46:23;0.30;;;0.30;;
12127;SDS011;6127;57.702;11.904;2023-04-07T14:48:49;0.20;;;0.20;;
12127;SDS011;6127;57.702;11.904;2023-04-07T14:51:18;0.40;;;0.40;;
12127;SDS011;6127;57.702;11.904;2023-04-07T14:53:45;0.30;;;0.30;;
12127;SDS011;6127;57.702;11.904;2023-04-07T14:56:11;0.20;;;0.20;;
12127;SDS011;6127;57.702;11.904;2023-04-07T14:58:37;0.30;;;0.30;;